Time;durP1;ratioP1;P1;durP2;ratioP2;P2;SDS_P1;SDS_P2;PMS_P1;PMS_P2;Temp;Humidity;BMP_temperature;BMP_pressure;BME280_temperature;BME280_humidity;BME280_pressure;Samples;Min_cycle;Max_cycle;Signal;HPM_P1;HPM_P2
2022/04/10 00:02:14;;;;;;;7.13;3.45;;;;;;;;;;4983940;28;20070;-63
2022/04/10 00:04:41;;;;;;;7.20;3.53;;;;;;;;;;4982986;28;20054;-63
2022/04/10 00:07:08;;;;;;;6.72;4.28;;;;;;;;;;4984177;28;20098;-63
2022/04/10 00:09:35;;;;;;;7.80;4.13;;;;;;;;;;4984462;28;20133;-63
2022/04/10 00:12:03;;;;;;;8.77;3.65;;;;;;;;;;4982670;28;20195;-63
2022/04/10 00:14:30;;;;;;;8.77;3.67;;;;;;;;;;4984574;28;20058;-63
2022/04/10 00:16:57;;;;;;;6.40;3.33;;;;;;;;;;4984104;28;20043;-63
2022/04/10 00:19:26;;;;;;;10.15;3.75;;;;;;;;;;4983130;28;20066;-62
2022/04/10 00:21:53;;;;;;;7.75;3.72;;;;;;;;;;4983853;28;20575;-63
2022/04/10 00:24:20;;;;;;;7.45;4.07;;;;;;;;;;4984483;28;20051;-64
2022/04/10 00:26:47;;;;;;;8.90;4.00;;;;;;;;;;4993255;28;20064;-63
2022/04/10 00:29:14;;;;;;;9.63;4.82;;;;;;;;;;4993300;28;20542;-62
2022/04/10 00:31:40;;;;;;;9.75;4.15;;;;;;;;;;4993600;28;20081;-63
2022/04/10 00:34:07;;;;;;;9.75;4.53;;;;;;;;;;4993481;28;20053;-62
2022/04/10 00:36:36;;;;;;;10.35;4.07;;;;;;;;;;4993337;28;20051;-62
2022/04/10 00:39:03;;;;;;;7.55;4.10;;;;;;;;;;4993099;28;20065;-62
2022/04/10 00:41:30;;;;;;;8.48;4.03;;;;;;;;;;4993563;28;20380;-61
2022/04/10 00:44:04;;;;;;;8.73;4.13;;;;;;;;;;4993333;28;20129;-62
2022/04/10 00:46:31;;;;;;;6.07;3.30;;;;;;;;;;4977094;28;20500;-62
2022/04/10 00:48:58;;;;;;;8.50;4.20;;;;;;;;;;4974808;28;20051;-62
2022/04/10 00:51:41;;;;;;;8.80;4.20;;;;;;;;;;4974796;28;20057;-61
2022/04/10 00:54:15;;;;;;;8.23;4.32;;;;;;;;;;4974265;28;20050;-61
2022/04/10 00:56:43;;;;;;;8.75;3.47;;;;;;;;;;4974823;28;20051;-61
2022/04/10 00:59:10;;;;;;;8.77;4.07;;;;;;;;;;4974212;28;20061;-61
2022/04/10 01:01:37;;;;;;;7.10;4.47;;;;;;;;;;4975042;28;20443;-61
2022/04/10 01:04:06;;;;;;;8.68;3.65;;;;;;;;;;4974337;28;20090;-61
2022/04/10 01:06:34;;;;;;;9.48;4.13;;;;;;;;;;4974485;28;20059;-61
2022/04/10 01:09:01;;;;;;;10.80;4.38;;;;;;;;;;4974568;28;20066;-61
2022/04/10 01:11:30;;;;;;;7.30;3.97;;;;;;;;;;4974977;28;20515;-62
2022/04/10 01:13:57;;;;;;;10.40;4.28;;;;;;;;;;4974618;28;20046;-62
2022/04/10 01:16:24;;;;;;;8.90;4.18;;;;;;;;;;4974703;28;20112;-61
2022/04/10 01:18:52;;;;;;;6.50;3.45;;;;;;;;;;4974561;28;20059;-61
2022/04/10 01:21:25;;;;;;;7.55;3.95;;;;;;;;;;4975151;28;20058;-60
2022/04/10 01:23:55;;;;;;;8.52;4.18;;;;;;;;;;4974827;28;20159;-61
2022/04/10 01:26:22;;;;;;;8.33;4.97;;;;;;;;;;4974996;28;20061;-61
2022/04/10 01:28:59;;;;;;;8.15;4.40;;;;;;;;;;4974741;28;20051;-60
2022/04/10 01:31:28;;;;;;;6.80;3.90;;;;;;;;;;4974630;28;20526;-61
2022/04/10 01:33:57;;;;;;;9.13;4.10;;;;;;;;;;4974723;28;20453;-60
2022/04/10 01:36:25;;;;;;;9.02;4.38;;;;;;;;;;4974236;28;20053;-60
2022/04/10 01:38:55;;;;;;;9.13;3.85;;;;;;;;;;4974232;28;20559;-61
2022/04/10 01:41:22;;;;;;;9.43;4.30;;;;;;;;;;4974574;28;20051;-61
2022/04/10 01:43:50;;;;;;;7.10;3.88;;;;;;;;;;4974155;28;20397;-61
2022/04/10 01:46:17;;;;;;;8.75;4.10;;;;;;;;;;4989093;28;20054;-59
2022/04/10 01:48:45;;;;;;;8.98;4.03;;;;;;;;;;4993360;28;20053;-61
2022/04/10 01:51:12;;;;;;;6.88;3.78;;;;;;;;;;4994140;28;20057;-59
2022/04/10 01:53:40;;;;;;;9.35;4.55;;;;;;;;;;4993718;28;20133;-63
2022/04/10 01:56:10;;;;;;;7.60;4.03;;;;;;;;;;4993262;28;20114;-60
2022/04/10 01:58:38;;;;;;;9.07;3.78;;;;;;;;;;4993541;28;20121;-61
2022/04/10 02:01:06;;;;;;;8.80;4.53;;;;;;;;;;4993762;28;20057;-61
2022/04/10 02:03:33;;;;;;;9.07;3.83;;;;;;;;;;4993699;28;20054;-61
2022/04/10 02:06:01;;;;;;;8.57;4.18;;;;;;;;;;4996459;28;20081;-60
2022/04/10 02:08:28;;;;;;;10.95;4.00;;;;;;;;;;4997785;28;20058;-60
2022/04/10 02:10:56;;;;;;;6.78;3.78;;;;;;;;;;4996252;28;20050;-60
2022/04/10 02:13:25;;;;;;;7.47;3.90;;;;;;;;;;4997064;28;20054;-61
2022/04/10 02:15:52;;;;;;;11.77;4.30;;;;;;;;;;4996822;28;20057;-61
2022/04/10 02:18:19;;;;;;;8.90;4.05;;;;;;;;;;4996947;28;20438;-61
2022/04/10 02:20:46;;;;;;;8.55;4.45;;;;;;;;;;4996519;28;20051;-60
2022/04/10 02:23:13;;;;;;;11.63;3.97;;;;;;;;;;4997052;28;20054;-61
2022/04/10 02:25:40;;;;;;;7.05;3.67;;;;;;;;;;4996593;28;20057;-61
2022/04/10 02:28:07;;;;;;;7.75;3.80;;;;;;;;;;4996857;28;20113;-61
2022/04/10 02:30:35;;;;;;;8.65;3.83;;;;;;;;;;4996626;28;20057;-60
2022/04/10 02:33:02;;;;;;;10.90;4.45;;;;;;;;;;4996848;28;20054;-60
2022/04/10 02:35:29;;;;;;;7.25;3.97;;;;;;;;;;4996394;28;20058;-61
2022/04/10 02:37:56;;;;;;;7.93;4.10;;;;;;;;;;4996774;28;20046;-60
2022/04/10 02:40:23;;;;;;;7.20;3.85;;;;;;;;;;4997002;28;20047;-60
2022/04/10 02:42:50;;;;;;;7.95;3.47;;;;;;;;;;4996804;28;20137;-61
2022/04/10 02:45:17;;;;;;;6.95;3.80;;;;;;;;;;4989386;28;20043;-61
2022/04/10 02:47:45;;;;;;;7.38;3.67;;;;;;;;;;4976647;28;20059;-61
2022/04/10 02:50:13;;;;;;;9.45;4.60;;;;;;;;;;4976357;28;20090;-61
2022/04/10 02:52:40;;;;;;;6.65;3.95;;;;;;;;;;4976745;28;20062;-61
2022/04/10 02:55:08;;;;;;;9.95;3.75;;;;;;;;;;4976533;28;20059;-61
2022/04/10 02:57:35;;;;;;;8.13;3.60;;;;;;;;;;4976503;28;20516;-60
2022/04/10 03:00:04;;;;;;;7.28;3.80;;;;;;;;;;4976448;28;20055;-61
2022/04/10 03:02:31;;;;;;;6.70;3.60;;;;;;;;;;4976378;28;20062;-61
2022/04/10 03:04:59;;;;;;;6.65;3.53;;;;;;;;;;4976544;28;20435;-61
2022/04/10 03:07:26;;;;;;;8.38;4.00;;;;;;;;;;4976373;28;20077;-61
2022/04/10 03:09:53;;;;;;;7.55;3.75;;;;;;;;;;4976584;28;20385;-60
2022/04/10 03:12:20;;;;;;;6.85;3.75;;;;;;;;;;4976450;28;20047;-61
2022/04/10 03:14:47;;;;;;;6.10;3.70;;;;;;;;;;4976098;28;20138;-61
2022/04/10 03:17:14;;;;;;;7.32;3.53;;;;;;;;;;4975892;28;20412;-61
2022/04/10 03:19:41;;;;;;;8.43;3.97;;;;;;;;;;4976799;28;20095;-60
2022/04/10 03:22:09;;;;;;;7.80;3.83;;;;;;;;;;4976503;28;20057;-61
2022/04/10 03:24:36;;;;;;;6.95;3.60;;;;;;;;;;4976446;28;20051;-59
2022/04/10 03:27:03;;;;;;;6.30;3.63;;;;;;;;;;4976272;28;20050;-60
2022/04/10 03:29:30;;;;;;;10.30;4.00;;;;;;;;;;4976269;28;20051;-60
2022/04/10 03:31:57;;;;;;;7.40;3.85;;;;;;;;;;4976185;28;20053;-63
2022/04/10 03:34:24;;;;;;;8.48;4.10;;;;;;;;;;4976367;28;20416;-62
2022/04/10 03:36:51;;;;;;;6.95;3.60;;;;;;;;;;4975850;28;20050;-62
2022/04/10 03:39:19;;;;;;;8.27;4.13;;;;;;;;;;4975996;28;20054;-61
2022/04/10 03:41:46;;;;;;;7.78;4.20;;;;;;;;;;4975915;28;20051;-62
2022/04/10 03:44:13;;;;;;;12.10;4.32;;;;;;;;;;4975904;28;20050;-62
2022/04/10 03:46:40;;;;;;;8.73;4.10;;;;;;;;;;4993485;28;20050;-62
2022/04/10 03:49:07;;;;;;;8.32;4.18;;;;;;;;;;4995521;28;20054;-60
2022/04/10 03:51:34;;;;;;;10.30;4.63;;;;;;;;;;4995093;28;20130;-61
2022/04/10 03:54:01;;;;;;;10.00;3.83;;;;;;;;;;4995269;28;20057;-61
2022/04/10 03:56:30;;;;;;;11.38;5.05;;;;;;;;;;4995230;28;20050;-62
2022/04/10 03:58:57;;;;;;;8.38;4.32;;;;;;;;;;4994991;28;20050;-62
2022/04/10 04:01:24;;;;;;;9.38;4.85;;;;;;;;;;4995204;28;20054;-62
2022/04/10 04:03:51;;;;;;;9.30;4.38;;;;;;;;;;4995053;28;20389;-62
2022/04/10 04:06:18;;;;;;;9.77;4.07;;;;;;;;;;4994715;28;20057;-60
2022/04/10 04:08:45;;;;;;;10.65;4.80;;;;;;;;;;4994876;28;20418;-62
2022/04/10 04:11:12;;;;;;;7.65;4.03;;;;;;;;;;4995068;28;20090;-62
2022/04/10 04:13:41;;;;;;;7.97;4.45;;;;;;;;;;5003985;23;20039;-66
2022/04/10 04:16:08;;;;;;;8.15;4.72;;;;;;;;;;4992229;28;20082;-66
2022/04/10 04:18:35;;;;;;;8.85;4.10;;;;;;;;;;4993099;28;20134;-66
2022/04/10 04:21:03;;;;;;;8.25;4.32;;;;;;;;;;4993574;28;20053;-65
2022/04/10 04:23:30;;;;;;;8.15;4.35;;;;;;;;;;4993383;28;20053;-66
2022/04/10 04:25:57;;;;;;;8.88;5.00;;;;;;;;;;4993432;28;20046;-66
2022/04/10 04:28:24;;;;;;;9.20;4.95;;;;;;;;;;4993087;28;20086;-66
2022/04/10 04:30:52;;;;;;;8.63;4.47;;;;;;;;;;4993250;28;20058;-66
2022/04/10 04:33:19;;;;;;;7.85;3.67;;;;;;;;;;4992795;28;20424;-65
2022/04/10 04:35:46;;;;;;;9.07;4.75;;;;;;;;;;4993199;28;20050;-65
2022/04/10 04:38:13;;;;;;;9.57;4.60;;;;;;;;;;4993374;28;20130;-65
2022/04/10 04:40:40;;;;;;;9.45;4.13;;;;;;;;;;4993155;28;20050;-66
2022/04/10 04:43:09;;;;;;;8.10;4.28;;;;;;;;;;4993595;28;20511;-64
2022/04/10 04:45:36;;;;;;;10.00;4.28;;;;;;;;;;4993243;28;20503;-66
2022/04/10 04:48:05;;;;;;;9.82;4.55;;;;;;;;;;4993303;28;20054;-66
2022/04/10 04:50:32;;;;;;;10.25;4.82;;;;;;;;;;4992790;28;20046;-66
2022/04/10 04:52:59;;;;;;;7.53;4.28;;;;;;;;;;4993146;28;20069;-65
2022/04/10 04:55:26;;;;;;;11.93;4.80;;;;;;;;;;4993405;28;20050;-65
2022/04/10 04:57:53;;;;;;;7.28;3.90;;;;;;;;;;4992874;28;20494;-65
2022/04/10 05:00:20;;;;;;;8.15;4.35;;;;;;;;;;4993008;28;20053;-66
2022/04/10 05:02:47;;;;;;;10.10;4.60;;;;;;;;;;4993163;28;20042;-66
2022/04/10 05:05:16;;;;;;;9.60;4.47;;;;;;;;;;4992796;28;20145;-66
2022/04/10 05:07:43;;;;;;;11.10;5.13;;;;;;;;;;4992750;28;20136;-66
2022/04/10 05:10:10;;;;;;;8.75;4.30;;;;;;;;;;4992562;28;20525;-65
2022/04/10 05:12:37;;;;;;;7.70;4.40;;;;;;;;;;4992853;28;20078;-65
2022/04/10 05:15:07;;;;;;;9.95;4.25;;;;;;;;;;4992401;28;20053;-66
2022/04/10 05:17:35;;;;;;;8.27;4.78;;;;;;;;;;4992717;28;20604;-67
2022/04/10 05:20:02;;;;;;;10.32;4.80;;;;;;;;;;4992787;28;20058;-66
2022/04/10 05:22:30;;;;;;;7.97;4.53;;;;;;;;;;4992598;28;20387;-66
2022/04/10 05:24:57;;;;;;;10.82;5.00;;;;;;;;;;4992771;28;20056;-67
2022/04/10 05:27:25;;;;;;;9.27;4.75;;;;;;;;;;4992420;28;20050;-65
2022/04/10 05:29:52;;;;;;;9.68;5.05;;;;;;;;;;4992840;28;20050;-66
2022/04/10 05:32:19;;;;;;;9.77;5.50;;;;;;;;;;4992711;28;20508;-65
2022/04/10 05:34:46;;;;;;;10.60;5.50;;;;;;;;;;4992546;28;20053;-66
2022/04/10 05:37:13;;;;;;;9.30;5.18;;;;;;;;;;4992515;28;20077;-66
2022/04/10 05:39:42;;;;;;;12.40;5.55;;;;;;;;;;4992471;28;20051;-67
2022/04/10 05:42:10;;;;;;;11.57;5.57;;;;;;;;;;4992761;28;20054;-67
2022/04/10 05:44:37;;;;;;;9.20;5.07;;;;;;;;;;4991094;28;20046;-65
2022/04/10 05:47:04;;;;;;;10.63;4.95;;;;;;;;;;4976198;28;20408;-66
2022/04/10 05:49:31;;;;;;;11.85;5.47;;;;;;;;;;4976761;28;20485;-65
2022/04/10 05:51:58;;;;;;;10.50;5.70;;;;;;;;;;4976876;28;20054;-66
2022/04/10 05:54:25;;;;;;;13.30;5.68;;;;;;;;;;4977094;28;20507;-67
2022/04/10 05:56:53;;;;;;;10.88;5.50;;;;;;;;;;4976539;28;20051;-65
2022/04/10 05:59:20;;;;;;;11.55;5.78;;;;;;;;;;4976552;28;20492;-66
2022/04/10 06:01:47;;;;;;;8.95;5.57;;;;;;;;;;4977321;28;20043;-65
2022/04/10 06:04:14;;;;;;;11.88;6.10;;;;;;;;;;4976556;28;20043;-67
2022/04/10 06:06:40;;;;;;;11.10;5.70;;;;;;;;;;4976333;28;20431;-65
2022/04/10 06:09:07;;;;;;;8.65;5.20;;;;;;;;;;4976877;28;20055;-66
2022/04/10 06:11:34;;;;;;;10.82;5.60;;;;;;;;;;4976590;28;20046;-66
2022/04/10 06:14:03;;;;;;;12.25;6.13;;;;;;;;;;4976852;28;20418;-66
2022/04/10 06:16:30;;;;;;;13.45;6.03;;;;;;;;;;4976309;28;20062;-66
2022/04/10 06:18:57;;;;;;;13.15;6.47;;;;;;;;;;4976401;28;20043;-66
2022/04/10 06:21:24;;;;;;;10.30;6.28;;;;;;;;;;4976589;28;20058;-66
2022/04/10 06:23:51;;;;;;;13.13;6.18;;;;;;;;;;4976545;28;20061;-66
2022/04/10 06:26:19;;;;;;;11.98;6.00;;;;;;;;;;4976290;28;20054;-66
2022/04/10 06:28:46;;;;;;;9.50;5.68;;;;;;;;;;4976459;28;20423;-67
2022/04/10 06:31:14;;;;;;;10.80;6.13;;;;;;;;;;4975908;28;20211;-66
2022/04/10 06:33:41;;;;;;;9.45;5.18;;;;;;;;;;4976532;28;20070;-66
2022/04/10 06:36:10;;;;;;;13.45;5.55;;;;;;;;;;4991045;28;20069;-66
2022/04/10 06:38:37;;;;;;;10.00;5.60;;;;;;;;;;4976067;28;20074;-66
2022/04/10 06:41:04;;;;;;;11.43;5.57;;;;;;;;;;4975984;28;20043;-65
2022/04/10 06:43:31;;;;;;;9.57;5.50;;;;;;;;;;4976335;28;20047;-66
2022/04/10 06:45:58;;;;;;;10.20;6.00;;;;;;;;;;4988270;28;20053;-66
2022/04/10 06:48:26;;;;;;;10.18;6.30;;;;;;;;;;4995436;28;20128;-67
2022/04/10 06:50:53;;;;;;;10.45;5.45;;;;;;;;;;4995405;28;20058;-66
2022/04/10 06:53:20;;;;;;;12.05;6.13;;;;;;;;;;4995293;28;20050;-67
2022/04/10 06:55:47;;;;;;;10.75;6.10;;;;;;;;;;4995127;28;20069;-64
2022/04/10 06:58:17;;;;;;;12.65;5.80;;;;;;;;;;4994825;28;20051;-66
2022/04/10 07:00:43;;;;;;;12.48;6.93;;;;;;;;;;4994960;28;20052;-67
2022/04/10 07:03:10;;;;;;;11.90;6.93;;;;;;;;;;4995126;28;20043;-67
2022/04/10 07:05:39;;;;;;;14.13;6.13;;;;;;;;;;4995306;28;20055;-69
2022/04/10 07:08:06;;;;;;;11.80;6.85;;;;;;;;;;4995007;28;20050;-66
2022/04/10 07:10:33;;;;;;;11.25;6.82;;;;;;;;;;4994787;28;20404;-66
2022/04/10 07:13:00;;;;;;;13.20;6.22;;;;;;;;;;4995122;28;20046;-66
2022/04/10 07:15:27;;;;;;;12.68;6.88;;;;;;;;;;4994877;28;20050;-66
2022/04/10 07:17:56;;;;;;;13.00;6.68;;;;;;;;;;4994851;28;20050;-65
2022/04/10 07:20:23;;;;;;;12.77;6.70;;;;;;;;;;4995580;28;20547;-66
2022/04/10 07:25:36;;;;;;;14.90;7.40;;;;;;;;;;4994770;28;20053;-65
2022/04/10 07:28:03;;;;;;;12.20;7.03;;;;;;;;;;4994426;28;20144;-66
2022/04/10 07:30:30;;;;;;;13.75;7.35;;;;;;;;;;4994747;28;20054;-66
2022/04/10 07:32:58;;;;;;;14.25;7.50;;;;;;;;;;4994774;28;20399;-65
2022/04/10 07:35:25;;;;;;;14.73;8.23;;;;;;;;;;4994591;28;20082;-65
2022/04/10 07:37:54;;;;;;;12.20;7.40;;;;;;;;;;4994261;28;20495;-66
2022/04/10 07:40:21;;;;;;;13.38;7.68;;;;;;;;;;4994513;28;20525;-64
2022/04/10 07:42:48;;;;;;;12.02;7.63;;;;;;;;;;4994716;28;20066;-67
2022/04/10 07:47:25;;;;;;;17.10;8.70;;;;;;;;;;4988066;28;20116;-66
2022/04/10 07:48:03;;;;;;;14.38;9.15;;;;;;;;;;4974639;28;20055;-66
2022/04/10 07:50:30;;;;;;;12.73;7.63;;;;;;;;;;4974659;28;20055;-64
2022/04/10 07:52:59;;;;;;;13.88;7.60;;;;;;;;;;4974478;28;20043;-65
2022/04/10 07:55:26;;;;;;;12.43;7.40;;;;;;;;;;4974991;28;20548;-66
2022/04/10 07:57:53;;;;;;;13.38;6.75;;;;;;;;;;4974475;28;20050;-66
2022/04/10 08:00:21;;;;;;;12.90;6.60;;;;;;;;;;4974751;28;20054;-67
2022/04/10 08:02:48;;;;;;;13.50;7.05;;;;;;;;;;4975044;28;20126;-65
2022/04/10 08:05:15;;;;;;;13.48;7.03;;;;;;;;;;4974343;28;20101;-66
2022/04/10 08:07:44;;;;;;;11.73;6.55;;;;;;;;;;4974000;28;20043;-66
2022/04/10 08:10:13;;;;;;;11.43;6.15;;;;;;;;;;4974266;28;20535;-67
2022/04/10 08:12:40;;;;;;;12.32;6.63;;;;;;;;;;4974363;28;20094;-65
2022/04/10 08:15:08;;;;;;;10.05;6.53;;;;;;;;;;4974219;28;20066;-66
2022/04/10 08:17:35;;;;;;;13.32;6.80;;;;;;;;;;4973804;28;20061;-65
2022/04/10 08:20:04;;;;;;;11.85;6.63;;;;;;;;;;4974244;28;20042;-66
2022/04/10 08:22:32;;;;;;;13.98;6.70;;;;;;;;;;4974448;28;20058;-66
2022/04/10 08:25:02;;;;;;;10.48;5.85;;;;;;;;;;4974992;28;20047;-66
2022/04/10 08:27:30;;;;;;;9.27;5.90;;;;;;;;;;4974250;28;20051;-66
2022/04/10 08:29:58;;;;;;;10.23;6.03;;;;;;;;;;4973931;28;20051;-65
2022/04/10 08:32:25;;;;;;;10.93;5.70;;;;;;;;;;4973896;28;20046;-65
2022/04/10 08:34:52;;;;;;;11.93;6.47;;;;;;;;;;4974015;28;20511;-65
2022/04/10 08:37:19;;;;;;;11.05;6.03;;;;;;;;;;4974575;28;20464;-66
2022/04/10 08:39:46;;;;;;;11.25;6.10;;;;;;;;;;4974110;28;20050;-66
2022/04/10 08:42:13;;;;;;;10.10;5.95;;;;;;;;;;4973495;28;20053;-66
2022/04/10 08:44:41;;;;;;;15.98;6.53;;;;;;;;;;4974903;28;20054;-66
2022/04/10 08:47:08;;;;;;;12.88;6.72;;;;;;;;;;4992697;28;20057;-66
2022/04/10 08:49:36;;;;;;;10.25;5.30;;;;;;;;;;4992634;28;20050;-65
2022/04/10 08:52:03;;;;;;;10.57;5.75;;;;;;;;;;4993464;28;20054;-65
2022/04/10 08:54:34;;;;;;;10.57;5.05;;;;;;;;;;4983957;28;20133;-66
2022/04/10 08:57:03;;;;;;;9.05;5.03;;;;;;;;;;4973292;28;20047;-66
2022/04/10 08:59:29;;;;;;;8.40;4.97;;;;;;;;;;4974150;28;20042;-66
2022/04/10 09:01:58;;;;;;;9.95;5.22;;;;;;;;;;4977089;28;20073;-66
2022/04/10 09:04:25;;;;;;;9.93;5.72;;;;;;;;;;4985037;28;20329;-67
2022/04/10 09:06:59;;;;;;;9.65;5.47;;;;;;;;;;4977214;28;20306;-67
2022/04/10 09:09:26;;;;;;;8.82;4.90;;;;;;;;;;4990626;28;20586;-67
2022/04/10 09:11:54;;;;;;;7.32;4.70;;;;;;;;;;4990663;28;20108;-66
2022/04/10 09:14:22;;;;;;;9.77;5.18;;;;;;;;;;4991128;28;20042;-67
2022/04/10 09:17:11;;;;;;;9.18;5.22;;;;;;;;;;4990125;28;20519;-67
2022/04/10 09:19:39;;;;;;;12.07;5.25;;;;;;;;;;4990392;28;20050;-67
2022/04/10 09:22:27;;;;;;;9.00;5.22;;;;;;;;;;4977083;28;20058;-66
2022/04/10 09:25:12;;;;;;;7.57;4.65;;;;;;;;;;4973077;28;20508;-66
2022/04/10 09:27:41;;;;;;;9.45;4.95;;;;;;;;;;4989439;28;20436;-67
2022/04/10 09:30:10;;;;;;;6.28;4.35;;;;;;;;;;4990998;28;20077;-67
2022/04/10 09:32:40;;;;;;;7.57;4.32;;;;;;;;;;4971043;28;20059;-68
2022/04/10 09:35:08;;;;;;;7.73;4.47;;;;;;;;;;4987517;28;20054;-67
2022/04/10 09:37:44;;;;;;;8.82;4.65;;;;;;;;;;4990393;28;20061;-67
2022/04/10 09:40:29;;;;;;;9.60;4.50;;;;;;;;;;4990548;28;20050;-67
2022/04/10 09:43:00;;;;;;;8.90;4.60;;;;;;;;;;4990282;28;20076;-66
2022/04/10 09:45:35;;;;;;;7.82;4.20;;;;;;;;;;4982428;28;20055;-67
2022/04/10 09:48:23;;;;;;;10.50;5.00;;;;;;;;;;4971227;28;20050;-66
2022/04/10 09:50:52;;;;;;;7.10;3.65;;;;;;;;;;4970912;28;20050;-67
2022/04/10 09:53:19;;;;;;;8.88;4.40;;;;;;;;;;4970753;28;20057;-66
2022/04/10 09:55:53;;;;;;;6.75;4.45;;;;;;;;;;4970739;28;20050;-67
2022/04/10 09:58:20;;;;;;;7.07;3.95;;;;;;;;;;4970684;28;20088;-68
2022/04/10 10:00:48;;;;;;;8.88;4.35;;;;;;;;;;4970976;28;20047;-67
2022/04/10 10:03:15;;;;;;;13.18;4.63;;;;;;;;;;4970989;28;20051;-68
2022/04/10 10:05:44;;;;;;;7.95;4.40;;;;;;;;;;4970651;28;20058;-68
2022/04/10 10:08:11;;;;;;;7.70;3.85;;;;;;;;;;4971354;28;20413;-67
2022/04/10 10:10:39;;;;;;;6.03;3.65;;;;;;;;;;4971081;28;20268;-67
2022/04/10 10:13:08;;;;;;;11.60;4.50;;;;;;;;;;4973451;28;20129;-67
2022/04/10 10:15:36;;;;;;;7.70;4.28;;;;;;;;;;4982598;28;20043;-66
2022/04/10 10:18:06;;;;;;;6.35;3.60;;;;;;;;;;4969701;28;20050;-66
2022/04/10 10:20:33;;;;;;;9.10;4.32;;;;;;;;;;4970838;28;20492;-67
2022/04/10 10:23:04;;;;;;;8.38;3.83;;;;;;;;;;4971001;28;20500;-67
2022/04/10 10:25:36;;;;;;;7.57;4.22;;;;;;;;;;4993586;23;20510;-62
2022/04/10 10:28:29;;;;;;;7.18;3.72;;;;;;;;;;4990807;28;20129;-61
2022/04/10 10:31:13;;;;;;;7.60;3.63;;;;;;;;;;4990394;28;20062;-61
2022/04/10 10:33:48;;;;;;;7.50;3.67;;;;;;;;;;4986317;28;20069;-62
2022/04/10 10:36:22;;;;;;;6.85;3.90;;;;;;;;;;4994457;28;20050;-61
2022/04/10 10:38:53;;;;;;;11.05;4.78;;;;;;;;;;4994512;28;20577;-62
2022/04/10 10:41:34;;;;;;;8.25;4.30;;;;;;;;;;4994505;28;20050;-63
2022/04/10 10:44:17;;;;;;;7.07;3.80;;;;;;;;;;4993742;28;20050;-60
2022/04/10 10:46:58;;;;;;;7.72;4.10;;;;;;;;;;4994539;28;20141;-61
2022/04/10 10:49:28;;;;;;;6.55;4.30;;;;;;;;;;4994095;28;20105;-61
2022/04/10 10:51:57;;;;;;;6.30;3.90;;;;;;;;;;4994560;28;20050;-60
2022/04/10 10:54:32;;;;;;;7.75;3.53;;;;;;;;;;4994563;28;20072;-61
2022/04/10 10:56:59;;;;;;;5.63;3.35;;;;;;;;;;4994108;28;20093;-60
2022/04/10 10:59:32;;;;;;;7.40;3.38;;;;;;;;;;4988149;28;20050;-58
2022/04/10 11:02:05;;;;;;;5.75;3.55;;;;;;;;;;4993650;28;20050;-61
2022/04/10 11:04:39;;;;;;;5.68;2.80;;;;;;;;;;4988410;28;20479;-61
2022/04/10 11:07:21;;;;;;;5.63;3.00;;;;;;;;;;4993899;28;20129;-63
2022/04/10 11:09:55;;;;;;;5.00;3.08;;;;;;;;;;4993605;28;20065;-62
2022/04/10 11:12:23;;;;;;;6.35;3.05;;;;;;;;;;4991933;28;20161;-62
2022/04/10 11:14:52;;;;;;;6.32;2.90;;;;;;;;;;4987207;28;20046;-61
2022/04/10 11:17:20;;;;;;;7.25;3.50;;;;;;;;;;4974384;28;20547;-62
2022/04/10 11:19:49;;;;;;;5.97;3.20;;;;;;;;;;4979723;28;20089;-62
2022/04/10 11:22:21;;;;;;;5.55;3.55;;;;;;;;;;4990878;28;20496;-61
2022/04/10 11:24:53;;;;;;;5.80;3.13;;;;;;;;;;4973661;28;20057;-62
2022/04/10 11:27:43;;;;;;;5.18;3.03;;;;;;;;;;4974037;28;20061;-62
2022/04/10 11:30:13;;;;;;;6.57;3.60;;;;;;;;;;4973033;28;20043;-61
2022/04/10 11:32:45;;;;;;;8.50;3.33;;;;;;;;;;4973456;28;20476;-62
2022/04/10 11:35:20;;;;;;;6.80;3.40;;;;;;;;;;4973427;28;20097;-63
2022/04/10 11:37:50;;;;;;;5.65;3.70;;;;;;;;;;4973422;28;20055;-61
2022/04/10 11:40:23;;;;;;;6.72;4.03;;;;;;;;;;4973185;28;20138;-61
2022/04/10 11:42:51;;;;;;;6.50;3.72;;;;;;;;;;4973120;28;20047;-67
2022/04/10 11:45:20;;;;;;;8.50;4.10;;;;;;;;;;4979701;28;20050;-60
2022/04/10 11:47:48;;;;;;;9.50;4.82;;;;;;;;;;4993548;28;20097;-60
2022/04/10 11:50:15;;;;;;;7.93;4.32;;;;;;;;;;4992585;28;20134;-61
2022/04/10 11:52:55;;;;;;;5.80;3.50;;;;;;;;;;4993123;28;20057;-61
2022/04/10 11:55:29;;;;;;;8.00;3.70;;;;;;;;;;4992702;28;20042;-61
2022/04/10 11:57:56;;;;;;;6.57;3.83;;;;;;;;;;4992355;28;20312;-61
2022/04/10 12:00:23;;;;;;;11.90;7.72;;;;;;;;;;4992606;28;20051;-60
2022/04/10 12:02:53;;;;;;;6.65;3.83;;;;;;;;;;4992592;28;20046;-61
2022/04/10 12:05:20;;;;;;;7.00;4.22;;;;;;;;;;4992058;28;20050;-61
2022/04/10 12:07:47;;;;;;;6.30;4.10;;;;;;;;;;4992358;28;20054;-61
2022/04/10 12:10:19;;;;;;;5.72;3.90;;;;;;;;;;4992142;28;20058;-61
2022/04/10 12:12:48;;;;;;;6.95;3.67;;;;;;;;;;4992188;28;20055;-65
2022/04/10 12:15:18;;;;;;;6.10;3.92;;;;;;;;;;4992227;28;20240;-62
2022/04/10 12:17:46;;;;;;;9.48;3.90;;;;;;;;;;4991838;28;20046;-61
2022/04/10 12:20:13;;;;;;;6.07;3.50;;;;;;;;;;4992335;28;20046;-62
2022/04/10 12:22:40;;;;;;;7.75;4.40;;;;;;;;;;4992311;28;20050;-61
2022/04/10 12:25:09;;;;;;;6.43;4.03;;;;;;;;;;4992281;28;20058;-60
2022/04/10 12:27:36;;;;;;;6.95;4.70;;;;;;;;;;4992772;28;20054;-60
2022/04/10 12:30:09;;;;;;;8.85;4.05;;;;;;;;;;4993139;28;20533;-60
2022/04/10 12:32:37;;;;;;;6.65;4.13;;;;;;;;;;4992421;28;20250;-59
2022/04/10 12:35:08;;;;;;;7.75;4.65;;;;;;;;;;4993176;28;20050;-59
2022/04/10 12:37:35;;;;;;;9.45;4.90;;;;;;;;;;4992511;28;20050;-59
2022/04/10 12:40:04;;;;;;;9.05;4.70;;;;;;;;;;4992190;28;20101;-60
2022/04/10 12:42:38;;;;;;;6.68;3.97;;;;;;;;;;4992525;28;20046;-60
2022/04/10 12:45:10;;;;;;;8.65;4.32;;;;;;;;;;4987621;28;20061;-60
2022/04/10 12:47:42;;;;;;;8.68;3.60;;;;;;;;;;4972951;28;20086;-60
2022/04/10 12:50:11;;;;;;;5.93;3.72;;;;;;;;;;4973417;28;20059;-60
2022/04/10 12:52:40;;;;;;;7.30;4.10;;;;;;;;;;4972488;28;20062;-62
2022/04/10 12:55:21;;;;;;;6.38;4.15;;;;;;;;;;4972195;28;20046;-61
2022/04/10 12:57:55;;;;;;;8.05;3.88;;;;;;;;;;4972779;28;20247;-60
2022/04/10 13:00:29;;;;;;;7.85;3.97;;;;;;;;;;4972656;28;20050;-61
2022/04/10 13:02:56;;;;;;;8.77;3.95;;;;;;;;;;4972836;28;20058;-61
2022/04/10 13:05:24;;;;;;;7.75;3.67;;;;;;;;;;4972548;28;20055;-61
2022/04/10 13:07:59;;;;;;;6.28;3.88;;;;;;;;;;4973277;28;20051;-61
2022/04/10 13:10:27;;;;;;;5.80;3.95;;;;;;;;;;4973232;28;20142;-61
2022/04/10 13:13:04;;;;;;;6.03;3.55;;;;;;;;;;4973199;28;20055;-60
2022/04/10 13:15:35;;;;;;;6.60;4.25;;;;;;;;;;4972760;28;20059;-61
2022/04/10 13:18:02;;;;;;;;;;;;;;;;;;4972943;28;20070;-60
2022/04/10 13:20:29;;;;;;;6.95;3.88;;;;;;;;;;4978900;28;20287;-60
2022/04/10 13:22:56;;;;;;;7.85;4.40;;;;;;;;;;4992030;28;20053;-61
2022/04/10 13:25:26;;;;;;;6.65;4.25;;;;;;;;;;4991422;28;20058;-61
2022/04/10 13:27:54;;;;;;;7.65;4.35;;;;;;;;;;4991786;28;20091;-60
2022/04/10 13:30:22;;;;;;;7.70;4.80;;;;;;;;;;4992979;28;20069;-62
2022/04/10 13:32:50;;;;;;;7.65;4.65;;;;;;;;;;4992491;28;20062;-61
2022/04/10 13:35:17;;;;;;;7.60;4.47;;;;;;;;;;4992058;28;20057;-61
2022/04/10 13:37:45;;;;;;;8.65;4.13;;;;;;;;;;4992318;28;20423;-61
2022/04/10 13:40:15;;;;;;;7.95;4.05;;;;;;;;;;4992272;28;20042;-59
2022/04/10 13:42:43;;;;;;;5.93;3.63;;;;;;;;;;4991958;28;20554;-60
2022/04/10 13:45:11;;;;;;;7.95;4.63;;;;;;;;;;4986441;28;20058;-60
2022/04/10 13:47:38;;;;;;;8.70;4.60;;;;;;;;;;4972079;28;20059;-60
2022/04/10 13:50:09;;;;;;;8.20;4.68;;;;;;;;;;4972455;28;20386;-61
2022/04/10 13:52:37;;;;;;;9.25;5.50;;;;;;;;;;4972260;28;20073;-61
2022/04/10 13:55:06;;;;;;;8.52;4.68;;;;;;;;;;4972693;28;20523;-61
2022/04/10 13:57:33;;;;;;;7.95;4.22;;;;;;;;;;4971400;28;20051;-61
2022/04/10 14:00:00;;;;;;;7.18;4.18;;;;;;;;;;4971889;28;20143;-61
2022/04/10 14:02:27;;;;;;;6.82;4.25;;;;;;;;;;4972398;28;20054;-61
2022/04/10 14:04:54;;;;;;;6.65;3.72;;;;;;;;;;4971554;28;20055;-60
2022/04/10 14:07:23;;;;;;;6.72;4.93;;;;;;;;;;4973599;28;20070;-60
2022/04/10 14:09:50;;;;;;;8.15;5.07;;;;;;;;;;4975663;28;20047;-60
2022/04/10 14:12:19;;;;;;;7.68;4.60;;;;;;;;;;4976224;28;20130;-60
2022/04/10 14:14:46;;;;;;;10.82;5.18;;;;;;;;;;4975991;28;20062;-60
2022/04/10 14:17:13;;;;;;;6.38;4.30;;;;;;;;;;4975796;28;20134;-59
2022/04/10 14:19:40;;;;;;;7.85;4.45;;;;;;;;;;4975951;28;20050;-60
2022/04/10 14:22:07;;;;;;;6.15;4.50;;;;;;;;;;4975367;28;20086;-59
2022/04/10 14:24:36;;;;;;;7.93;4.65;;;;;;;;;;4975709;28;20066;-60
2022/04/10 14:27:03;;;;;;;6.30;4.00;;;;;;;;;;4976160;28;20411;-60
2022/04/10 14:29:34;;;;;;;6.50;3.67;;;;;;;;;;4976726;28;20072;-60
2022/04/10 14:32:02;;;;;;;7.03;4.32;;;;;;;;;;4976772;28;20057;-60
2022/04/10 14:34:31;;;;;;;6.40;4.13;;;;;;;;;;4975821;28;20061;-59
2022/04/10 14:36:59;;;;;;;6.10;4.25;;;;;;;;;;4974787;28;20057;-58
2022/04/10 14:39:26;;;;;;;6.40;4.25;;;;;;;;;;4974465;28;20077;-60
2022/04/10 14:41:54;;;;;;;7.20;4.25;;;;;;;;;;4978808;28;20396;-60
2022/04/10 14:44:22;;;;;;;6.47;4.60;;;;;;;;;;4992334;28;20066;-60
2022/04/10 14:46:49;;;;;;;6.15;4.00;;;;;;;;;;4994355;28;20572;-60
2022/04/10 14:49:16;;;;;;;7.10;3.90;;;;;;;;;;4993656;28;20145;-61
2022/04/10 14:51:43;;;;;;;6.82;4.10;;;;;;;;;;4994078;28;20054;-62
2022/04/10 14:54:10;;;;;;;7.78;3.80;;;;;;;;;;4993099;28;20054;-59